createdAt,value
2022-11-01T00:02:23.966Z,15.21
2022-11-01T00:04:52.716Z,17.47
2022-11-01T00:07:20.685Z,17.98
2022-11-01T00:09:48.757Z,16.94
2022-11-01T00:12:16.725Z,16.01
2022-11-01T00:14:44.696Z,15.37
2022-11-01T00:17:12.665Z,14.91
2022-11-01T00:19:40.838Z,14.55
2022-11-01T00:22:09.115Z,14.90
2022-11-01T00:24:37.083Z,17.10
2022-11-01T00:27:05.262Z,17.97
2022-11-01T00:29:33.228Z,16.98
2022-11-01T00:32:01.296Z,15.98
2022-11-01T00:34:29.267Z,15.27
2022-11-01T00:36:57.338Z,14.74
2022-11-01T00:39:30.392Z,14.82
2022-11-01T00:41:59.831Z,16.98
2022-11-01T00:44:27.903Z,17.94
2022-11-01T00:46:55.973Z,16.97
2022-11-01T00:49:24.351Z,15.98
2022-11-01T00:51:52.513Z,15.27
2022-11-01T00:54:20.509Z,14.74
2022-11-01T00:56:48.497Z,14.87
2022-11-01T00:59:16.534Z,17.07
2022-11-01T01:01:44.589Z,17.90
2022-11-01T01:04:12.780Z,16.87
2022-11-01T01:06:41.670Z,15.87
2022-11-01T01:09:11.542Z,15.15
2022-11-01T01:11:39.553Z,14.62
2022-11-01T01:14:07.522Z,14.76
2022-11-01T01:16:35.575Z,16.97
2022-11-01T01:19:05.815Z,17.86
2022-11-01T01:21:33.887Z,16.85
2022-11-01T01:24:01.857Z,15.89
2022-11-01T01:26:29.824Z,15.21
2022-11-01T01:28:57.793Z,14.73
2022-11-01T01:31:25.762Z,14.35
2022-11-01T01:33:53.834Z,14.51
2022-11-01T01:36:21.906Z,16.71
2022-11-01T01:38:53.766Z,17.60
2022-11-01T01:41:40.576Z,16.62
2022-11-01T01:44:46.639Z,15.58
2022-11-01T01:47:17.269Z,14.82
2022-11-01T01:49:47.458Z,14.37
2022-11-01T01:52:15.973Z,14.01
2022-11-01T01:54:44.043Z,14.52
2022-11-01T01:57:12.719Z,16.88
2022-11-01T01:59:41.200Z,17.33
2022-11-01T02:02:09.908Z,16.27
2022-11-01T02:04:42.985Z,15.38
2022-11-01T02:07:11.988Z,14.74
2022-11-01T02:09:40.661Z,14.26
2022-11-01T02:12:11.193Z,13.87
2022-11-01T02:14:42.520Z,14.13
2022-11-01T02:17:23.104Z,16.41
2022-11-01T02:20:12.477Z,17.47
2022-11-01T02:22:58.558Z,16.28
2022-11-01T02:26:01.867Z,15.23
2022-11-01T02:28:53.911Z,14.42
2022-11-01T02:31:30.879Z,14.63
2022-11-01T02:34:07.655Z,16.79
2022-11-01T02:36:48.015Z,17.39
2022-11-01T02:39:16.006Z,16.18
2022-11-01T02:41:56.344Z,15.23
2022-11-01T02:44:31.992Z,14.50
2022-11-01T02:47:02.704Z,14.58
2022-11-01T02:49:54.246Z,16.85
2022-11-01T02:52:26.312Z,17.43
2022-11-01T02:55:03.703Z,16.28
2022-11-01T02:57:39.556Z,15.30
2022-11-01T03:00:22.548Z,14.65
2022-11-01T03:03:13.996Z,14.14
2022-11-01T03:06:00.509Z,14.97
2022-11-01T03:08:39.087Z,17.52
2022-11-01T03:11:19.888Z,17.14
2022-11-01T03:14:12.025Z,15.94
2022-11-01T03:16:44.907Z,15.03
2022-11-01T03:19:15.643Z,14.47
2022-11-01T03:22:16.584Z,14.03
2022-11-01T03:25:31.758Z,14.68
2022-11-01T03:28:04.746Z,17.49
2022-11-01T03:30:35.582Z,16.94
2022-11-01T03:33:05.238Z,15.80
2022-11-01T03:35:38.612Z,14.98
2022-11-01T03:38:16.489Z,14.38
2022-11-01T03:40:52.958Z,13.90
2022-11-01T03:43:25.634Z,14.19
2022-11-01T03:45:56.103Z,16.70
2022-11-01T03:48:26.214Z,17.32
2022-11-01T03:50:57.517Z,16.22
2022-11-01T03:53:26.113Z,15.24
2022-11-01T03:55:56.063Z,14.58
2022-11-01T03:58:42.123Z,14.08
2022-11-01T04:01:12.767Z,13.67
2022-11-01T04:03:42.038Z,14.28
2022-11-01T04:06:10.234Z,16.89
2022-11-01T04:08:38.869Z,17.34
2022-11-01T04:11:08.499Z,16.21
2022-11-01T04:13:39.810Z,15.24
2022-11-01T04:16:29.444Z,14.54
2022-11-01T04:19:16.151Z,13.98
2022-11-01T04:21:44.429Z,13.56
2022-11-01T04:24:21.207Z,13.25
2022-11-01T04:26:49.599Z,13.77
2022-11-01T04:29:17.654Z,16.39
2022-11-01T04:31:45.726Z,16.92
2022-11-01T04:34:13.694Z,15.80
2022-11-01T04:36:41.663Z,14.84
2022-11-01T04:39:09.633Z,14.18
2022-11-01T04:41:37.703Z,13.70
2022-11-01T04:44:05.671Z,13.32
2022-11-01T04:46:33.640Z,13.02
2022-11-01T04:49:01.712Z,13.48
2022-11-01T04:51:30.419Z,16.02
2022-11-01T04:53:59.391Z,16.76
2022-11-01T04:56:27.360Z,15.68
2022-11-01T04:58:55.431Z,14.72
2022-11-01T05:01:23.509Z,14.04
2022-11-01T05:03:52.036Z,13.57
2022-11-01T05:06:20.054Z,13.20
2022-11-01T05:08:48.126Z,12.90
2022-11-01T05:11:16.095Z,13.34
2022-11-01T05:13:44.371Z,15.92
2022-11-01T05:16:20.799Z,16.60
2022-11-01T05:18:49.626Z,15.42
2022-11-01T05:21:17.807Z,14.46
2022-11-01T05:23:48.809Z,13.79
2022-11-01T05:26:16.935Z,13.30
2022-11-01T05:28:45.567Z,12.93
2022-11-01T05:31:13.878Z,12.61
2022-11-01T05:33:42.048Z,13.08
2022-11-01T05:36:10.120Z,15.67
2022-11-01T05:38:38.193Z,16.44
2022-11-01T05:41:06.612Z,15.33
2022-11-01T05:43:34.642Z,14.35
2022-11-01T05:46:07.401Z,13.66
2022-11-01T05:48:35.599Z,13.17
2022-11-01T05:51:03.669Z,12.78
2022-11-01T05:53:31.638Z,12.47
2022-11-01T05:56:00.028Z,12.77
2022-11-01T05:58:30.812Z,15.34
2022-11-01T06:01:00.870Z,16.36
2022-11-01T06:03:29.274Z,15.26
2022-11-01T06:05:57.909Z,14.27
2022-11-01T06:08:26.723Z,13.55
2022-11-01T06:11:03.158Z,13.02
2022-11-01T06:13:31.864Z,12.57
2022-11-01T06:16:01.073Z,12.25
2022-11-01T06:18:29.453Z,12.70
2022-11-01T06:20:58.344Z,15.28
2022-11-01T06:23:26.416Z,16.03
2022-11-01T06:26:02.555Z,14.94
2022-11-01T06:28:31.288Z,13.96
2022-11-01T06:33:37.336Z,12.90
2022-11-01T06:36:06.324Z,13.14
2022-11-01T06:38:35.020Z,15.59
2022-11-01T06:41:03.603Z,16.49
2022-11-01T06:43:31.573Z,15.43
2022-11-01T06:46:01.073Z,14.43
2022-11-01T06:48:30.168Z,13.72
2022-11-01T06:50:58.240Z,13.22
2022-11-01T06:53:26.208Z,13.69
2022-11-01T06:55:54.280Z,16.16
2022-11-01T06:58:22.556Z,17.19
2022-11-01T07:00:50.653Z,16.18
2022-11-01T07:03:18.747Z,15.19
2022-11-01T07:05:49.643Z,14.52
2022-11-01T07:08:17.914Z,14.05
2022-11-01T07:10:45.985Z,14.34
2022-11-01T07:13:14.364Z,16.72
2022-11-01T07:15:42.438Z,17.79
2022-11-01T07:18:10.508Z,16.82
2022-11-01T07:20:42.313Z,15.84
2022-11-01T07:23:13.616Z,15.17
2022-11-01T07:25:42.322Z,14.71
2022-11-01T07:28:10.684Z,14.35
2022-11-01T07:30:39.546Z,14.82
2022-11-01T07:33:07.638Z,17.32
2022-11-01T07:35:36.835Z,18.27
2022-11-01T07:38:08.284Z,17.19
2022-11-01T07:40:40.044Z,16.18
2022-11-01T07:43:08.324Z,15.53
2022-11-01T07:45:36.777Z,15.07
2022-11-01T07:48:10.539Z,14.74
2022-11-01T07:50:40.530Z,15.12
2022-11-01T07:53:14.637Z,17.52
2022-11-01T07:55:43.323Z,18.59
2022-11-01T07:58:12.829Z,17.61
2022-11-01T08:00:42.026Z,16.70
2022-11-01T08:03:16.869Z,16.09
2022-11-01T08:05:46.671Z,15.64
2022-11-01T08:08:16.374Z,15.33
2022-11-01T08:10:44.858Z,15.07
2022-11-01T08:13:17.954Z,15.46
2022-11-01T08:15:47.244Z,17.97
2022-11-01T08:18:16.856Z,19.16
2022-11-01T08:20:45.231Z,18.14
2022-11-01T08:23:13.303Z,17.12
2022-11-01T08:25:41.373Z,16.43
2022-11-01T08:28:15.289Z,15.97
2022-11-01T08:30:45.504Z,15.63
2022-11-01T08:33:14.522Z,15.39
2022-11-01T08:35:49.759Z,15.75
2022-11-01T08:38:19.358Z,18.21
2022-11-01T08:40:48.237Z,19.28
2022-11-01T08:43:17.007Z,18.33
2022-11-01T08:45:45.300Z,17.40
2022-11-01T08:48:13.677Z,16.78
2022-11-01T08:50:42.059Z,16.34
2022-11-01T08:53:13.403Z,16.03
2022-11-01T08:55:42.026Z,16.25
2022-11-01T08:58:10.675Z,18.51
2022-11-01T09:00:38.745Z,19.52
2022-11-01T09:03:07.024Z,18.48
2022-11-01T09:05:35.911Z,17.45
2022-11-01T09:08:04.687Z,16.76
2022-11-01T09:10:33.181Z,16.24
2022-11-01T09:13:02.683Z,15.83
2022-11-01T09:15:31.698Z,16.12
2022-11-01T09:18:05.350Z,18.52
2022-11-01T09:20:33.666Z,19.65
2022-11-01T09:23:01.923Z,18.62
2022-11-01T09:25:30.211Z,17.51
2022-11-01T09:27:58.466Z,16.76
2022-11-01T09:30:26.880Z,16.21
2022-11-01T09:32:54.889Z,15.79
2022-11-01T09:35:22.907Z,15.45
2022-11-01T09:37:58.248Z,15.73
2022-11-01T09:40:36.136Z,18.23
2022-11-01T09:43:09.200Z,19.02
2022-11-01T09:45:37.831Z,17.84
2022-11-01T09:48:07.416Z,16.87
2022-11-01T09:50:38.368Z,16.22
2022-11-01T09:53:29.378Z,15.73
2022-11-01T09:56:10.412Z,15.28
2022-11-01T09:58:50.715Z,14.99
2022-11-01T10:01:46.809Z,15.58
2022-11-01T10:04:30.886Z,18.34
2022-11-01T10:07:06.636Z,18.32
2022-11-01T10:09:42.513Z,17.21
2022-11-01T10:12:22.337Z,16.39
2022-11-01T10:15:03.517Z,15.84
2022-11-01T10:17:40.395Z,15.42
2022-11-01T10:20:12.437Z,15.09
2022-11-01T10:22:44.424Z,14.81
2022-11-01T10:25:28.877Z,15.34
2022-11-01T10:28:20.604Z,18.22
2022-11-01T10:30:51.133Z,18.74
2022-11-01T10:33:32.179Z,17.54
2022-11-01T10:36:10.292Z,16.61
2022-11-01T10:39:16.658Z,16.03
2022-11-01T10:42:07.387Z,15.62
2022-11-01T10:44:42.114Z,16.37
2022-11-01T10:47:16.947Z,18.90
2022-11-01T10:50:09.277Z,18.98
2022-11-01T10:53:12.956Z,17.76
2022-11-01T10:55:51.119Z,16.86
2022-11-01T10:58:38.115Z,16.34
2022-11-01T11:01:10.531Z,15.97
2022-11-01T11:03:41.731Z,15.71
2022-11-01T11:06:12.362Z,16.00
2022-11-01T11:08:44.019Z,18.43
2022-11-01T11:11:15.679Z,19.44
2022-11-01T11:13:48.051Z,18.43
2022-11-01T11:16:38.849Z,17.45
2022-11-01T11:19:22.384Z,16.69
2022-11-01T11:21:54.040Z,16.17
2022-11-01T11:24:25.181Z,15.78
2022-11-01T11:26:56.850Z,16.04
2022-11-01T11:29:31.052Z,18.42
2022-11-01T11:32:00.660Z,19.54
2022-11-01T11:34:32.727Z,18.56
2022-11-01T11:37:03.666Z,17.40
2022-11-01T11:39:37.162Z,16.56
2022-11-01T11:42:12.401Z,15.97
2022-11-01T11:44:44.773Z,16.21
2022-11-01T11:47:24.626Z,18.47
2022-11-01T11:49:54.433Z,19.43
2022-11-01T11:52:28.842Z,18.29
2022-11-01T11:54:58.681Z,17.08
2022-11-01T11:57:30.347Z,16.27
2022-11-01T12:00:05.782Z,16.26
2022-11-01T12:02:42.728Z,18.63
2022-11-01T12:05:19.933Z,19.26
2022-11-01T12:07:58.448Z,18.03
2022-11-01T12:10:40.957Z,16.93
2022-11-01T12:13:24.183Z,16.16
2022-11-01T12:16:16.602Z,16.27
2022-11-01T12:18:52.787Z,18.75
2022-11-01T12:21:27.315Z,19.11
2022-11-01T12:24:01.015Z,17.78
2022-11-01T12:26:32.874Z,16.69
2022-11-01T12:29:18.149Z,15.98
2022-11-01T12:31:48.562Z,17.37
2022-11-01T12:34:26.076Z,19.40
2022-11-01T12:37:00.799Z,18.93
2022-11-01T12:40:09.725Z,17.63
2022-11-01T12:42:45.271Z,16.55
2022-11-01T12:45:25.215Z,15.95
2022-11-01T12:48:40.500Z,17.25
2022-11-01T12:51:35.809Z,19.29
2022-11-01T12:54:14.318Z,18.27
2022-11-01T12:56:42.396Z,17.11
2022-11-01T12:59:20.504Z,16.36
2022-11-01T13:02:17.537Z,16.01
2022-11-01T13:04:59.270Z,18.21
2022-11-01T13:07:42.575Z,19.42
2022-11-01T13:10:28.088Z,18.14
2022-11-01T13:13:19.984Z,16.82
2022-11-01T13:15:54.303Z,15.91
2022-11-01T13:18:33.843Z,16.11
2022-11-01T13:21:20.245Z,18.52
2022-11-01T13:24:01.012Z,19.43
2022-11-01T13:26:55.093Z,18.12
2022-11-01T13:29:23.472Z,16.71
2022-11-01T13:32:07.927Z,15.96
2022-11-01T13:34:56.038Z,17.08
2022-11-01T13:37:37.515Z,19.30
2022-11-01T13:40:06.343Z,18.72
2022-11-01T13:42:46.601Z,17.44
2022-11-01T13:45:20.816Z,16.40
2022-11-01T13:48:11.518Z,16.30
2022-11-01T13:50:51.571Z,18.64
2022-11-01T13:53:25.352Z,19.39
2022-11-01T13:56:02.769Z,18.13
2022-11-01T13:58:32.837Z,16.88
2022-11-01T14:01:35.803Z,16.04
2022-11-01T14:04:19.530Z,16.32
2022-11-01T14:07:15.279Z,18.82
2022-11-01T14:09:56.207Z,18.98
2022-11-01T14:12:38.073Z,17.54
2022-11-01T14:15:13.751Z,16.43
2022-11-01T14:17:56.977Z,15.69
2022-11-01T14:20:31.805Z,16.01
2022-11-01T14:23:28.651Z,18.41
2022-11-01T14:26:21.610Z,19.32
2022-11-01T14:28:56.984Z,17.84
2022-11-01T14:31:28.326Z,16.70
2022-11-01T14:34:00.190Z,15.96
2022-11-01T14:36:34.270Z,17.03
2022-11-01T14:39:18.213Z,19.20
2022-11-01T14:41:53.696Z,19.07
2022-11-01T14:44:31.456Z,17.71
2022-11-01T14:47:05.777Z,16.70
2022-11-01T14:49:42.768Z,15.96
2022-11-01T14:52:23.702Z,16.19
2022-11-01T14:55:14.329Z,18.45
2022-11-01T14:57:43.246Z,19.38
2022-11-01T15:00:32.179Z,18.20
2022-11-01T15:03:02.640Z,16.91
2022-11-01T15:05:31.294Z,16.08
2022-11-01T15:07:59.618Z,16.00
2022-11-01T15:10:28.115Z,18.03
2022-11-01T15:13:01.856Z,19.21
2022-11-01T15:15:35.457Z,18.07
2022-11-01T15:18:14.957Z,16.75
2022-11-01T15:20:48.702Z,15.77
2022-11-01T15:23:28.634Z,15.88
2022-11-01T15:26:00.615Z,18.30
2022-11-01T15:28:39.538Z,19.19
2022-11-01T15:31:10.156Z,17.93
2022-11-01T15:33:38.446Z,16.77
2022-11-01T15:36:18.804Z,15.94
2022-11-01T15:38:56.485Z,15.93
2022-11-01T15:41:30.891Z,18.22
2022-11-01T15:44:07.907Z,19.14
2022-11-01T15:46:42.061Z,17.88
2022-11-01T15:49:16.624Z,16.74
2022-11-01T15:52:09.391Z,15.88
2022-11-01T15:54:45.839Z,16.00
2022-11-01T15:57:28.727Z,18.33
2022-11-01T16:00:19.309Z,19.06
2022-11-01T16:03:16.942Z,17.69
2022-11-01T16:06:00.986Z,16.52
2022-11-01T16:08:48.089Z,15.76
2022-11-01T16:11:21.090Z,16.08
2022-11-01T16:13:56.330Z,18.42
2022-11-01T16:16:24.402Z,18.84
2022-11-01T16:18:55.915Z,17.64
2022-11-01T16:21:30.928Z,16.62
2022-11-01T16:24:04.015Z,15.91
2022-11-01T16:27:06.321Z,16.07
2022-11-01T16:29:43.232Z,18.70
2022-11-01T16:32:35.295Z,18.69
2022-11-01T16:35:35.282Z,17.33
2022-11-01T16:38:22.405Z,16.29
2022-11-01T16:40:56.390Z,15.65
2022-11-01T16:43:29.303Z,15.85
2022-11-01T16:45:59.517Z,18.14
2022-11-01T16:48:36.673Z,19.01
2022-11-01T16:51:05.086Z,17.81
2022-11-01T16:53:33.562Z,16.75
2022-11-01T16:56:35.001Z,15.97
2022-11-01T16:59:07.201Z,15.29
2022-11-01T17:01:36.488Z,15.69
2022-11-01T17:04:06.958Z,17.97
2022-11-01T17:06:39.048Z,18.84
2022-11-01T17:09:14.656Z,17.66
2022-11-01T17:11:50.479Z,16.55
2022-11-01T17:14:22.953Z,15.75
2022-11-01T17:16:53.480Z,15.75
2022-11-01T17:19:31.094Z,17.92
2022-11-01T17:22:03.448Z,18.93
2022-11-01T17:24:34.041Z,17.71
2022-11-01T17:27:06.297Z,16.58
2022-11-01T17:29:35.077Z,15.76
2022-11-01T17:32:10.705Z,15.79
2022-11-01T17:34:39.505Z,17.93
2022-11-01T17:37:15.336Z,19.03
2022-11-01T17:39:43.920Z,17.96
2022-11-01T17:42:12.498Z,16.76
2022-11-01T17:45:01.148Z,15.76
2022-11-01T17:47:29.217Z,15.76
2022-11-01T17:49:57.188Z,17.70
2022-11-01T17:52:25.259Z,18.37
2022-11-01T17:54:53.229Z,17.22
2022-11-01T17:57:21.196Z,16.15
2022-11-01T17:59:49.268Z,15.96
2022-11-01T18:02:17.430Z,17.78
2022-11-01T18:04:45.623Z,18.84
2022-11-01T18:07:17.168Z,17.82
2022-11-01T18:09:45.828Z,16.54
2022-11-01T18:12:40.001Z,15.77
2022-11-01T18:15:14.155Z,17.43
2022-11-01T18:18:01.273Z,18.87
2022-11-01T18:20:55.553Z,17.70
2022-11-01T18:23:25.776Z,16.40
2022-11-01T18:25:53.847Z,15.61
2022-11-01T18:28:26.629Z,15.75
2022-11-01T18:31:01.254Z,17.94
2022-11-01T18:33:54.931Z,19.01
2022-11-01T18:36:48.290Z,17.64
2022-11-01T18:39:56.237Z,16.35
2022-11-01T18:42:25.905Z,16.47
2022-11-01T18:45:16.197Z,18.50
2022-11-01T18:47:55.318Z,18.64
2022-11-01T18:50:26.816Z,17.20
2022-11-01T18:53:10.927Z,16.16
2022-11-01T18:55:40.131Z,15.61
2022-11-01T18:58:22.328Z,17.23
2022-11-01T19:01:23.037Z,18.81
2022-11-01T19:04:21.348Z,17.95
2022-11-01T19:06:51.498Z,16.46
2022-11-01T19:09:30.127Z,15.58
2022-11-01T19:12:13.327Z,15.51
2022-11-01T19:14:43.721Z,17.65
2022-11-01T19:17:38.186Z,18.64
2022-11-01T19:20:40.908Z,17.32
2022-11-01T19:23:15.898Z,15.89
2022-11-01T19:25:45.559Z,15.66
2022-11-01T19:28:37.380Z,17.68
2022-11-01T19:31:15.383Z,18.69
2022-11-01T19:33:47.012Z,17.31
2022-11-01T19:36:19.860Z,16.12
2022-11-01T19:38:48.986Z,15.25
2022-11-01T19:41:29.685Z,15.21
2022-11-01T19:44:02.159Z,17.21
2022-11-01T19:46:30.435Z,18.13
2022-11-01T19:48:58.404Z,17.20
2022-11-01T19:51:26.890Z,16.04
2022-11-01T19:53:54.955Z,15.46
2022-11-01T19:56:31.323Z,17.09
2022-11-01T19:59:03.081Z,18.31
2022-11-01T20:01:41.013Z,17.20
2022-11-01T20:04:28.007Z,15.90
2022-11-01T20:07:01.471Z,15.29
2022-11-01T20:09:35.918Z,17.02
2022-11-01T20:12:04.698Z,18.39
2022-11-01T20:14:34.516Z,17.44
2022-11-01T20:17:02.998Z,16.19
2022-11-01T20:19:34.244Z,15.32
2022-11-01T20:22:02.838Z,16.33
2022-11-01T20:24:31.414Z,18.17
2022-11-01T20:27:01.017Z,17.91
2022-11-01T20:29:29.994Z,16.57
2022-11-01T20:31:58.286Z,15.55
2022-11-01T20:34:27.586Z,15.55
2022-11-01T20:37:27.119Z,17.63
2022-11-01T20:39:43.902Z,18.31
2022-11-01T20:42:11.871Z,17.02
2022-11-01T20:44:39.839Z,15.82
2022-11-01T20:47:07.811Z,15.46
2022-11-01T20:49:36.188Z,17.28
2022-11-01T20:52:33.914Z,18.39
2022-11-01T20:54:54.040Z,17.13
2022-11-01T20:57:28.146Z,15.91
2022-11-01T20:59:57.350Z,15.11
2022-11-01T21:02:25.760Z,16.38
2022-11-01T21:05:02.607Z,18.15
2022-11-01T21:07:33.660Z,17.68
2022-11-01T21:10:01.616Z,16.33
2022-11-01T21:12:45.354Z,15.27
2022-11-01T21:15:39.128Z,15.13
2022-11-01T21:18:07.876Z,17.52
2022-11-01T21:20:40.496Z,18.48
2022-11-01T21:23:32.448Z,17.11
2022-11-01T21:26:02.545Z,15.56
2022-11-01T21:28:53.707Z,15.28
2022-11-01T21:31:37.805Z,17.37
2022-11-01T21:34:10.228Z,17.71
2022-11-01T21:36:43.470Z,16.43
2022-11-01T21:39:33.188Z,15.22
2022-11-01T21:42:19.344Z,15.05
2022-11-01T21:44:47.313Z,17.35
2022-11-01T21:47:21.431Z,18.23
2022-11-01T21:49:50.113Z,16.89
2022-11-01T21:52:21.359Z,15.58
2022-11-01T21:54:49.945Z,15.31
2022-11-01T21:57:18.456Z,17.24
2022-11-01T21:59:46.803Z,18.21
2022-11-01T22:02:16.068Z,17.00
2022-11-01T22:04:45.277Z,15.79
2022-11-01T22:07:13.271Z,15.37
2022-11-01T22:09:41.340Z,17.15
2022-11-01T22:12:09.410Z,17.74
2022-11-01T22:14:37.790Z,16.46
2022-11-01T22:17:05.860Z,15.42
2022-11-01T22:19:33.934Z,15.41
2022-11-01T22:22:02.215Z,17.57
2022-11-01T22:24:31.203Z,18.36
2022-11-01T22:26:59.374Z,16.99
2022-11-01T22:29:27.347Z,15.78
2022-11-01T22:31:55.414Z,15.28
2022-11-01T22:34:23.508Z,17.09
2022-11-01T22:36:51.663Z,18.17
2022-11-01T22:39:22.905Z,17.13
2022-11-01T22:41:51.495Z,15.87
2022-11-01T22:44:26.325Z,15.05
2022-11-01T22:46:59.011Z,16.25
2022-11-01T22:49:42.122Z,18.26
2022-11-01T22:52:31.493Z,17.80
2022-11-01T22:55:23.627Z,16.27
2022-11-01T22:57:59.992Z,15.46
2022-11-01T23:00:32.469Z,17.29
2022-11-01T23:03:00.634Z,18.62
2022-11-01T23:05:29.123Z,17.48
2022-11-01T23:07:59.959Z,16.27
2022-11-01T23:10:33.971Z,15.45
2022-11-01T23:13:51.404Z,16.73
2022-11-01T23:16:44.151Z,18.40
2022-11-01T23:19:13.654Z,17.21
2022-11-01T23:21:41.928Z,16.01
2022-11-01T23:24:09.899Z,15.96
2022-11-01T23:26:37.970Z,17.86
2022-11-01T23:29:06.143Z,18.38
2022-11-01T23:31:34.130Z,17.09
2022-11-01T23:34:02.081Z,16.01
2022-11-01T23:36:33.430Z,15.24
2022-11-01T23:39:12.238Z,16.24
2022-11-01T23:41:45.854Z,18.43
2022-11-01T23:44:22.737Z,18.35
2022-11-01T23:46:51.320Z,16.90
2022-11-01T23:49:23.722Z,15.85
2022-11-01T23:51:52.669Z,15.09
2022-11-01T23:54:27.408Z,15.17
2022-11-01T23:56:56.079Z,17.20
2022-11-01T23:59:24.168Z,18.14
